New Orleans, LA (70170)

9:07 PM CDT on October 01, 2014 (GMT -0500)
Mid City Station | Change Station
CLOSE
Current Station
Personal Weather Station
Location: New Orleans, LA
Elevation: 25 ft
Nearby Weather Stations

Elev 25 ft 29.98 °N, 90.08 °W | Updated 3 seconds ago

Partly Cloudy
Partly Cloudy
79.6 °F
Feels Like 84 °F
N
2.0
Wind Variable Wind from ENE
Gusts 3.0 mph

Today
High -- | Low -- °F
--% Chance of Precip.
Yesterday
High -- | Low -- °F
Precip. -- in
6:53 AM 6:45 PM
First Quarter, 53% visible
Pressure 29.92 in
Visibility 10.0 miles
Clouds Scattered Clouds 1800 ft
Mostly Cloudy 2500 ft
Heat Index 84 °F
Dew Point 73 °F
Humidity 81%
Rainfall 0.01 in
Snow Depth Not available.
UV 0 out of 12
Pollen 6.70 out of 12
Ozone Good
PM2.5 Good
Flu Activity Not available.
METAR KNEW 020153Z AUTO 15008KT 10SM SCT018 BKN025 27/24 A2994 RMK AO2 SLP132 T02670239 TSNO

More Conditions Fewer Conditions

Pressure 29.92 in
Visibility 10.0 miles
Clouds Scattered Clouds 1800 ft
Mostly Cloudy 2500 ft
Heat Index 84 °F
Dew Point 73 °F
Humidity 81%
Rainfall 0.01 in
Snow Depth Not available.
UV 0 out of 12
Pollen 6.70 out of 12
Ozone Good
PM2.5 Good
Flu Activity Not available.
METAR KNEW 020153Z AUTO 15008KT 10SM SCT018 BKN025 27/24 A2994 RMK AO2 SLP132 T02670239 TSNO

More Conditions Fewer Conditions

10-Day Weather Forecast

Almanac

Astronomy

Oct. 01, 2014 Rise Set
Actual Time 6:53 AM CDT 6:45 PM CDT
Civil Twilight 6:29 AM CDT 7:09 PM CDT
Nautical Twilight 6:02 AM CDT 7:37 PM CDT
Astronomical Twilight 5:34 AM CDT 8:05 PM CDT
Moon 1:36 PM CDT (10/1) No Moon Set
Length of Visible Light 12h 39m
Length of Day
11h 52m
Tomorrow will be 1m 47s shorter.
First Quarter, 53% of the Moon is Illuminated
Today
First Quarter
Oct 8
Full
Oct 15
Last Quarter
Oct 23
New
Oct 30
First Quarter

Today's Extremes

State Highs State Lows

Community

WunderPhotos

Upload Photos

1,758,124 photos uploaded!

WunderBlogs® & News

Nearby

Air Quality

  Air Quality AQ Index Pollutant
Yesterday Good
OZONE
Yesterday Good
PM2.5
Current Good
PM2.5
Current Good
OZONE
Wednesday Good
PM2.5
Wednesday Good
OZONE
Thursday Good
OZONE
Thursday Good
PM2.5
Friday Good
OZONE
Friday Good
PM2.5

Snow Depth

Station Depth Elevation
No new snow has been reported.

Earthquake Activity

City Distance Mag. Time & Date
No recent earthquake activity has been reported nearby.
Minimum magnitude displayed is 2.5.

Coastal Water Temperatures

Place Temperature
New Canal, LA 77.0 °F
Shell Beach, LA 75.9 °F
Bayou Gauche, LA 82.0 °F

Nearby Weather Stations